createdAt,value
2023-03-13T00:01:00.025Z,5.63
2023-03-13T00:03:27.740Z,5.23
2023-03-13T00:05:58.563Z,5.00
2023-03-13T00:08:26.236Z,5.53
2023-03-13T00:10:52.849Z,5.30
2023-03-13T00:13:19.398Z,5.07
2023-03-13T00:15:46.136Z,5.73
2023-03-13T00:18:13.090Z,5.60
2023-03-13T00:20:40.538Z,5.00
2023-03-13T00:23:07.183Z,5.00
2023-03-13T00:25:34.758Z,5.07
2023-03-13T00:28:01.868Z,5.37
2023-03-13T00:30:28.987Z,5.17
2023-03-13T00:32:55.665Z,5.07
2023-03-13T00:35:23.096Z,5.00
2023-03-13T00:37:49.737Z,5.37
2023-03-13T00:40:16.570Z,5.20
2023-03-13T00:42:43.100Z,5.30
2023-03-13T00:45:10.396Z,4.77
2023-03-13T00:47:37.331Z,5.53
2023-03-13T00:50:04.338Z,5.00
2023-03-13T00:52:30.962Z,5.57
2023-03-13T00:54:57.640Z,5.33
2023-03-13T00:57:24.247Z,5.50
2023-03-13T00:59:51.102Z,5.40
2023-03-13T01:02:17.912Z,5.33
2023-03-13T01:04:44.870Z,4.77
2023-03-13T01:07:11.494Z,5.63
2023-03-13T01:09:38.097Z,5.83
2023-03-13T01:12:05.055Z,5.30
2023-03-13T01:14:31.555Z,4.87
2023-03-13T01:16:58.157Z,5.70
2023-03-13T01:19:24.623Z,5.27
2023-03-13T01:21:51.288Z,4.90
2023-03-13T01:24:20.105Z,5.73
2023-03-13T01:26:47.094Z,5.03
2023-03-13T01:29:14.291Z,5.13
2023-03-13T01:31:40.872Z,4.90
2023-03-13T01:34:08.093Z,5.17
2023-03-13T01:36:36.518Z,5.10
2023-03-13T01:39:03.504Z,5.07
2023-03-13T01:41:30.824Z,4.20
2023-03-13T01:43:57.928Z,4.67
2023-03-13T01:46:27.586Z,5.63
2023-03-13T01:48:55.860Z,4.50
2023-03-13T01:51:38.575Z,4.63
2023-03-13T01:54:20.513Z,4.63
2023-03-13T01:56:57.273Z,4.53
2023-03-13T01:59:37.405Z,4.80
2023-03-13T02:02:05.043Z,4.70
2023-03-13T02:04:37.818Z,4.00
2023-03-13T02:07:14.981Z,4.47
2023-03-13T02:09:43.936Z,4.40
2023-03-13T02:12:13.526Z,4.97
2023-03-13T02:14:43.232Z,4.60
2023-03-13T02:17:10.023Z,4.50
2023-03-13T02:19:48.309Z,4.90
2023-03-13T02:22:36.473Z,4.83
2023-03-13T02:25:26.939Z,4.97
2023-03-13T02:28:21.333Z,4.80
2023-03-13T02:30:50.223Z,4.30
2023-03-13T02:33:18.701Z,4.80
2023-03-13T02:35:46.037Z,4.40
2023-03-13T02:38:16.852Z,4.10
2023-03-13T02:40:46.610Z,4.70
2023-03-13T02:43:19.665Z,4.33
2023-03-13T02:46:06.227Z,4.23
2023-03-13T02:48:53.549Z,4.57
2023-03-13T02:51:24.265Z,4.33
2023-03-13T02:53:52.756Z,4.40
2023-03-13T02:56:22.943Z,4.60
2023-03-13T02:58:50.668Z,4.63
2023-03-13T03:01:17.370Z,4.57
2023-03-13T03:03:44.320Z,4.90
2023-03-13T03:06:10.976Z,4.50
2023-03-13T03:08:41.416Z,4.10
2023-03-13T03:11:08.358Z,4.60
2023-03-13T03:13:34.911Z,3.80
2023-03-13T03:16:09.277Z,4.57
2023-03-13T03:18:36.839Z,4.70
2023-03-13T03:21:06.282Z,4.40
2023-03-13T03:23:33.874Z,4.40
2023-03-13T03:26:01.134Z,4.50
2023-03-13T03:28:27.920Z,3.40
2023-03-13T03:30:55.686Z,4.43
2023-03-13T03:33:22.935Z,4.53
2023-03-13T03:35:50.567Z,4.23
2023-03-13T03:38:17.289Z,4.43
2023-03-13T03:40:43.920Z,4.03
2023-03-13T03:43:10.375Z,4.30
2023-03-13T03:45:37.011Z,4.37
2023-03-13T03:48:03.664Z,3.93
2023-03-13T03:50:30.101Z,3.73
2023-03-13T03:52:56.595Z,4.33
2023-03-13T03:55:23.146Z,4.13
2023-03-13T03:57:49.814Z,3.63
2023-03-13T04:00:16.558Z,4.67
2023-03-13T04:02:43.309Z,3.90
2023-03-13T04:05:10.106Z,4.37
2023-03-13T04:07:37.080Z,4.23
2023-03-13T04:10:04.527Z,4.20
2023-03-13T04:12:31.148Z,4.30
2023-03-13T04:14:57.648Z,4.07
2023-03-13T04:17:24.301Z,4.03
2023-03-13T04:19:50.729Z,4.17
2023-03-13T04:22:17.208Z,4.33
2023-03-13T04:24:44.066Z,4.13
2023-03-13T04:27:10.507Z,3.87
2023-03-13T04:29:36.915Z,4.37
2023-03-13T04:32:03.752Z,4.00
2023-03-13T04:34:30.413Z,4.33
2023-03-13T04:36:57.005Z,3.77
2023-03-13T04:39:25.360Z,4.30
2023-03-13T04:41:55.761Z,4.97
2023-03-13T04:44:23.117Z,3.57
2023-03-13T04:46:49.790Z,4.80
2023-03-13T04:49:16.612Z,4.77
2023-03-13T04:51:43.810Z,4.20
2023-03-13T04:54:10.699Z,4.07
2023-03-13T04:56:43.539Z,4.07
2023-03-13T04:59:14.380Z,4.27
2023-03-13T05:01:41.438Z,4.23
2023-03-13T05:04:08.768Z,4.50
2023-03-13T05:06:35.379Z,4.47
2023-03-13T05:09:03.357Z,4.03
2023-03-13T05:11:30.947Z,4.13
2023-03-13T05:13:57.426Z,4.37
2023-03-13T05:16:24.469Z,4.30
2023-03-13T05:18:51.142Z,4.30
2023-03-13T05:21:18.421Z,4.50
2023-03-13T05:23:45.344Z,4.40
2023-03-13T05:26:11.910Z,4.23
2023-03-13T05:28:38.761Z,4.33
2023-03-13T05:31:05.432Z,4.07
2023-03-13T05:33:32.042Z,4.20
2023-03-13T05:35:58.645Z,4.03
2023-03-13T05:38:25.528Z,4.30
2023-03-13T05:40:52.001Z,4.33
2023-03-13T05:43:18.493Z,4.20
2023-03-13T05:45:46.189Z,4.50
2023-03-13T05:48:13.268Z,4.03
2023-03-13T05:50:39.910Z,4.77
2023-03-13T05:53:06.466Z,3.73
2023-03-13T05:55:33.037Z,4.43
2023-03-13T05:57:59.558Z,4.80
2023-03-13T06:00:27.062Z,4.60
2023-03-13T06:02:53.516Z,4.90
2023-03-13T06:05:20.001Z,4.90
2023-03-13T06:07:46.624Z,4.17
2023-03-13T06:10:13.101Z,5.17
2023-03-13T06:12:40.202Z,4.77
2023-03-13T06:15:07.582Z,5.40
2023-03-13T06:17:34.233Z,5.17
2023-03-13T06:20:00.720Z,5.27
2023-03-13T06:22:27.520Z,5.57
2023-03-13T06:24:53.987Z,5.40
2023-03-13T06:27:20.506Z,5.27
2023-03-13T06:29:47.069Z,5.27
2023-03-13T06:32:13.693Z,5.80
2023-03-13T06:34:40.340Z,5.73
2023-03-13T06:37:07.003Z,6.13
2023-03-13T06:39:34.051Z,5.83
2023-03-13T06:42:00.591Z,5.93
2023-03-13T06:44:27.187Z,5.80
2023-03-13T06:46:53.842Z,6.33
2023-03-13T06:49:20.460Z,6.67
2023-03-13T06:51:46.948Z,6.90
2023-03-13T06:54:13.496Z,7.10
2023-03-13T06:56:40.061Z,6.93
2023-03-13T06:59:06.463Z,7.77
2023-03-13T07:01:33.498Z,7.50
2023-03-13T07:04:00.152Z,8.07
2023-03-13T07:06:27.077Z,7.43
2023-03-13T07:08:54.102Z,8.40
2023-03-13T07:11:20.576Z,8.20
2023-03-13T07:13:46.975Z,7.03
2023-03-13T07:16:14.178Z,7.50
2023-03-13T07:18:44.787Z,7.40
2023-03-13T07:21:12.402Z,5.13
2023-03-13T07:23:38.968Z,4.70
2023-03-13T07:26:07.901Z,4.13
2023-03-13T07:28:37.571Z,4.10
2023-03-13T07:31:15.709Z,4.40
2023-03-13T07:33:42.810Z,3.77
2023-03-13T07:36:09.967Z,4.60
2023-03-13T07:38:36.901Z,5.13
2023-03-13T07:41:04.150Z,3.50
2023-03-13T07:43:31.543Z,3.63
2023-03-13T07:46:04.873Z,3.47
2023-03-13T07:48:33.864Z,4.23
2023-03-13T07:51:00.957Z,4.03
2023-03-13T07:53:28.444Z,3.17
2023-03-13T07:56:00.582Z,4.43
2023-03-13T07:58:29.819Z,3.50
2023-03-13T08:00:57.048Z,3.73
2023-03-13T08:03:24.209Z,3.70
2023-03-13T08:06:15.207Z,3.63
2023-03-13T08:08:41.681Z,3.80
2023-03-13T08:11:13.414Z,3.90
2023-03-13T08:13:41.295Z,3.97
2023-03-13T08:16:14.869Z,4.00
2023-03-13T08:18:46.296Z,4.37
2023-03-13T08:21:19.190Z,4.30
2023-03-13T08:23:45.851Z,3.77
2023-03-13T08:26:14.669Z,4.27
2023-03-13T08:28:41.892Z,4.63
2023-03-13T08:31:17.055Z,4.43
2023-03-13T08:33:45.112Z,4.37
2023-03-13T08:36:26.417Z,4.67
2023-03-13T08:38:54.570Z,5.00
2023-03-13T08:41:23.328Z,4.60
2023-03-13T08:43:52.777Z,4.10
2023-03-13T08:46:19.931Z,4.53
2023-03-13T08:48:54.315Z,4.67
2023-03-13T08:51:23.705Z,4.60
2023-03-13T08:53:50.967Z,4.43
2023-03-13T08:56:19.454Z,4.30
2023-03-13T08:58:50.727Z,3.90
2023-03-13T09:01:17.756Z,3.83
2023-03-13T09:03:44.436Z,5.03
2023-03-13T09:06:11.406Z,4.53
2023-03-13T09:08:39.126Z,5.03
2023-03-13T09:11:14.210Z,5.03
2023-03-13T09:13:44.875Z,4.43
2023-03-13T09:16:17.164Z,3.47
2023-03-13T09:18:43.794Z,4.50
2023-03-13T09:21:14.131Z,4.30
2023-03-13T09:23:40.990Z,3.57
2023-03-13T09:26:07.554Z,3.10
2023-03-13T09:28:34.597Z,3.77
2023-03-13T09:31:09.035Z,3.80
2023-03-13T09:33:36.029Z,3.90
2023-03-13T09:36:02.983Z,3.90
2023-03-13T09:38:29.588Z,4.03
2023-03-13T09:41:06.222Z,4.47
2023-03-13T09:43:33.079Z,4.20
2023-03-13T09:46:02.693Z,4.43
2023-03-13T09:48:34.554Z,4.90
2023-03-13T09:51:36.467Z,4.40
2023-03-13T09:54:06.485Z,4.60
2023-03-13T09:56:50.438Z,4.90
2023-03-13T09:59:22.006Z,5.00
2023-03-13T10:01:49.448Z,4.10
2023-03-13T10:04:36.188Z,3.93
2023-03-13T10:07:02.823Z,4.47
2023-03-13T10:09:32.112Z,3.60
2023-03-13T10:12:20.737Z,3.30
2023-03-13T10:14:54.590Z,3.53
2023-03-13T10:17:32.625Z,2.60
2023-03-13T10:20:23.619Z,2.20
2023-03-13T10:23:00.698Z,2.13
2023-03-13T10:25:39.007Z,2.10
2023-03-13T10:28:08.840Z,2.30
2023-03-13T10:30:38.704Z,1.90
2023-03-13T10:33:08.395Z,2.40
2023-03-13T10:35:38.014Z,2.23
2023-03-13T10:38:11.739Z,2.00
2023-03-13T10:40:39.584Z,1.97
2023-03-13T10:43:21.295Z,2.57
2023-03-13T10:45:48.848Z,2.30
2023-03-13T10:48:19.492Z,2.37
2023-03-13T10:50:49.227Z,2.20
2023-03-13T10:53:32.908Z,2.10
2023-03-13T10:56:17.645Z,1.73
2023-03-13T10:58:52.190Z,1.80
2023-03-13T11:01:28.893Z,2.00
2023-03-13T11:03:57.305Z,1.80
2023-03-13T11:06:31.210Z,1.77
2023-03-13T11:09:03.922Z,2.20
2023-03-13T11:11:31.222Z,1.70
2023-03-13T11:14:18.775Z,1.73
2023-03-13T11:16:51.569Z,1.63
2023-03-13T11:19:24.225Z,1.50
2023-03-13T11:22:02.567Z,1.47
2023-03-13T11:24:40.336Z,1.60
2023-03-13T11:27:48.778Z,1.40
2023-03-13T11:30:22.786Z,1.30
2023-03-13T11:32:54.178Z,1.30
2023-03-13T11:35:35.734Z,1.40
2023-03-13T11:38:08.414Z,1.50
2023-03-13T11:40:50.231Z,1.30
2023-03-13T11:43:26.612Z,1.30
2023-03-13T11:46:04.467Z,1.50
2023-03-13T11:48:40.063Z,1.30
2023-03-13T11:51:12.815Z,1.33
2023-03-13T11:54:20.112Z,1.37
2023-03-13T11:56:56.775Z,1.33
2023-03-13T11:59:29.390Z,1.20
2023-03-13T12:02:00.860Z,1.20
2023-03-13T12:05:01.286Z,1.37
2023-03-13T12:07:32.298Z,1.60
2023-03-13T12:10:23.656Z,1.37
2023-03-13T12:12:59.397Z,1.47
2023-03-13T12:15:29.640Z,1.33
2023-03-13T12:18:20.618Z,1.33
2023-03-13T12:21:12.222Z,1.50
2023-03-13T12:23:38.809Z,1.40
2023-03-13T12:26:19.482Z,1.40
2023-03-13T12:28:55.029Z,1.30
2023-03-13T12:31:29.497Z,1.50
2023-03-13T12:34:03.743Z,1.30
2023-03-13T12:36:41.625Z,1.25
2023-03-13T12:39:22.768Z,1.43
2023-03-13T12:42:27.051Z,1.30
2023-03-13T12:44:54.230Z,1.30
2023-03-13T12:47:27.953Z,1.30
2023-03-13T12:50:19.380Z,1.33
2023-03-13T12:52:45.802Z,1.20
2023-03-13T12:55:24.074Z,1.10
2023-03-13T12:58:06.553Z,1.20
2023-03-13T13:00:35.827Z,1.17
2023-03-13T13:03:17.395Z,1.38
2023-03-13T13:06:06.010Z,1.20
2023-03-13T13:08:37.712Z,1.10
2023-03-13T13:11:38.695Z,1.30
2023-03-13T13:14:28.502Z,1.33
2023-03-13T13:17:00.381Z,1.10
2023-03-13T13:19:26.855Z,1.38
2023-03-13T13:22:33.420Z,1.17
2023-03-13T13:25:00.960Z,1.30
2023-03-13T13:27:36.537Z,1.38
2023-03-13T13:30:17.405Z,1.35
2023-03-13T13:32:50.197Z,1.50
2023-03-13T13:35:28.836Z,1.10
2023-03-13T13:38:20.206Z,1.30
2023-03-13T13:41:10.063Z,1.15
2023-03-13T13:43:43.182Z,1.50
2023-03-13T13:46:33.509Z,1.10
2023-03-13T13:49:06.699Z,1.20
2023-03-13T13:51:43.605Z,1.30
2023-03-13T13:54:19.153Z,1.20
2023-03-13T13:56:50.118Z,1.20
2023-03-13T13:59:24.802Z,1.38
2023-03-13T14:02:21.666Z,1.33
2023-03-13T14:05:15.530Z,1.20
2023-03-13T14:08:00.361Z,1.20
2023-03-13T14:10:43.669Z,1.35
2023-03-13T14:13:19.472Z,1.30
2023-03-13T14:15:53.251Z,1.35
2023-03-13T14:18:28.300Z,1.38
2023-03-13T14:20:57.232Z,1.10
2023-03-13T14:23:44.112Z,1.40
2023-03-13T14:26:24.263Z,1.58
2023-03-13T14:28:53.978Z,1.42
2023-03-13T14:31:22.926Z,1.40
2023-03-13T14:33:50.079Z,1.40
2023-03-13T14:36:16.557Z,1.10
2023-03-13T14:38:52.954Z,1.35
2023-03-13T14:41:43.195Z,1.35
2023-03-13T14:44:24.978Z,1.45
2023-03-13T14:46:59.439Z,1.40
2023-03-13T14:49:31.680Z,1.60
2023-03-13T14:52:01.417Z,1.42
2023-03-13T14:54:36.649Z,1.50
2023-03-13T14:57:04.407Z,1.20
2023-03-13T14:59:31.058Z,1.33
2023-03-13T15:02:04.517Z,1.50
2023-03-13T15:04:50.056Z,1.50
2023-03-13T15:07:17.137Z,1.50
2023-03-13T15:09:45.865Z,1.45
2023-03-13T15:12:18.925Z,1.30
2023-03-13T15:14:47.704Z,1.50
2023-03-13T15:17:15.049Z,1.70
2023-03-13T15:19:42.543Z,1.70
2023-03-13T15:22:16.487Z,1.60
2023-03-13T15:24:48.458Z,1.40
2023-03-13T15:27:22.091Z,1.50
2023-03-13T15:29:49.538Z,1.52
2023-03-13T15:32:21.986Z,1.63
2023-03-13T15:34:48.461Z,1.65
2023-03-13T15:37:15.638Z,1.80
2023-03-13T15:39:42.304Z,1.60
2023-03-13T15:42:08.830Z,1.40
2023-03-13T15:44:35.610Z,1.50
2023-03-13T15:47:02.237Z,1.40
2023-03-13T15:49:28.721Z,1.42
2023-03-13T15:51:57.708Z,1.40
2023-03-13T15:54:26.501Z,1.77
2023-03-13T15:56:53.228Z,1.63
2023-03-13T15:59:19.756Z,1.40
2023-03-13T16:01:46.267Z,1.30
2023-03-13T16:04:30.402Z,1.40
2023-03-13T16:06:58.456Z,1.48
2023-03-13T16:09:25.075Z,1.50
2023-03-13T16:11:51.618Z,1.73
2023-03-13T16:14:18.076Z,1.70
2023-03-13T16:16:44.786Z,2.00
2023-03-13T16:19:12.330Z,1.63
2023-03-13T16:21:43.085Z,1.50
2023-03-13T16:24:09.576Z,1.70
2023-03-13T16:26:36.056Z,1.90
2023-03-13T16:29:02.924Z,1.33
2023-03-13T16:31:31.478Z,1.40
2023-03-13T16:33:58.980Z,1.40
2023-03-13T16:36:31.326Z,1.77
2023-03-13T16:38:59.898Z,1.80
2023-03-13T16:41:27.825Z,1.95
2023-03-13T16:43:55.046Z,2.03
2023-03-13T16:46:28.553Z,2.40
2023-03-13T16:48:58.351Z,2.10
2023-03-13T16:51:26.148Z,3.20
2023-03-13T16:53:54.402Z,2.05
2023-03-13T16:56:30.496Z,2.05
2023-03-13T16:58:57.336Z,2.10
2023-03-13T17:01:29.904Z,1.85
2023-03-13T17:03:57.840Z,1.90
2023-03-13T17:06:28.018Z,2.13
2023-03-13T17:08:55.696Z,1.80
2023-03-13T17:11:22.656Z,1.70
2023-03-13T17:13:50.715Z,2.08
2023-03-13T17:16:23.274Z,2.47
2023-03-13T17:18:51.729Z,1.98
2023-03-13T17:21:27.088Z,2.33
2023-03-13T17:23:53.687Z,2.10
2023-03-13T17:26:25.955Z,2.30
2023-03-13T17:28:55.052Z,2.55
2023-03-13T17:31:23.654Z,2.63
2023-03-13T17:33:50.623Z,2.80
2023-03-13T17:36:18.683Z,2.40
2023-03-13T17:38:46.100Z,2.70
2023-03-13T17:41:14.691Z,2.80
2023-03-13T17:43:41.729Z,3.20
2023-03-13T17:46:15.168Z,3.17
2023-03-13T17:48:41.810Z,3.57
2023-03-13T17:51:16.958Z,3.67
2023-03-13T17:53:44.284Z,3.80
2023-03-13T17:56:24.813Z,3.60
2023-03-13T17:58:54.366Z,4.10
2023-03-13T18:01:22.257Z,3.83
2023-03-13T18:03:49.525Z,3.72
2023-03-13T18:06:19.566Z,3.50
2023-03-13T18:08:47.275Z,3.72
2023-03-13T18:11:15.383Z,3.83
2023-03-13T18:13:41.992Z,3.50
2023-03-13T18:16:28.248Z,4.20
2023-03-13T18:18:54.902Z,4.38
2023-03-13T18:21:24.322Z,4.33
2023-03-13T18:23:52.143Z,3.80
2023-03-13T18:26:33.597Z,3.90
2023-03-13T18:29:01.373Z,3.80
2023-03-13T18:31:30.046Z,2.92
2023-03-13T18:33:58.616Z,3.20
2023-03-13T18:36:25.565Z,3.28
2023-03-13T18:38:52.786Z,3.53
2023-03-13T18:41:19.850Z,3.20
2023-03-13T18:43:46.783Z,3.25
2023-03-13T18:46:20.611Z,3.00
2023-03-13T18:48:49.036Z,3.00
2023-03-13T18:51:17.358Z,2.95
2023-03-13T18:53:44.806Z,3.25
2023-03-13T18:56:20.790Z,3.42
2023-03-13T18:58:50.367Z,3.17
2023-03-13T19:01:20.187Z,3.70
2023-03-13T19:03:47.692Z,3.58
2023-03-13T19:06:27.518Z,3.70
2023-03-13T19:08:57.541Z,3.60
2023-03-13T19:11:27.028Z,3.50
2023-03-13T19:13:53.908Z,3.83
2023-03-13T19:16:35.058Z,4.13
2023-03-13T19:19:01.958Z,4.18
2023-03-13T19:21:30.406Z,4.85
2023-03-13T19:23:57.521Z,4.50
2023-03-13T19:26:31.644Z,4.25
2023-03-13T19:28:59.056Z,4.20
2023-03-13T19:31:26.217Z,4.40
2023-03-13T19:33:55.664Z,4.93
2023-03-13T19:36:23.450Z,4.90
2023-03-13T19:38:50.391Z,3.90
2023-03-13T19:41:18.015Z,2.70
2023-03-13T19:43:45.546Z,2.90
2023-03-13T19:46:28.107Z,2.73
2023-03-13T19:48:57.066Z,3.23
2023-03-13T19:51:24.492Z,2.87
2023-03-13T19:53:51.989Z,3.03
2023-03-13T19:56:22.228Z,2.50
2023-03-13T19:58:50.957Z,3.70
2023-03-13T20:01:18.339Z,3.50
2023-03-13T20:03:45.916Z,3.57
2023-03-13T20:06:21.484Z,3.50
2023-03-13T20:08:48.380Z,3.77
2023-03-13T20:11:15.824Z,4.33
2023-03-13T20:13:42.667Z,4.90
2023-03-13T20:16:12.672Z,4.90
2023-03-13T20:18:40.458Z,4.27
2023-03-13T20:21:07.589Z,4.70
2023-03-13T20:23:34.117Z,3.80
2023-03-13T20:26:08.393Z,3.40
2023-03-13T20:28:42.192Z,2.73
2023-03-13T20:31:09.330Z,2.67
2023-03-13T20:33:36.450Z,2.73
2023-03-13T20:36:09.292Z,2.17
2023-03-13T20:38:37.208Z,2.40
2023-03-13T20:41:04.671Z,2.10
2023-03-13T20:43:32.280Z,2.50
2023-03-13T20:46:01.753Z,2.47
2023-03-13T20:48:29.234Z,2.50
2023-03-13T20:50:58.305Z,2.50
2023-03-13T20:53:25.966Z,2.50
2023-03-13T20:55:54.477Z,2.10
2023-03-13T20:58:21.225Z,2.27
2023-03-13T21:00:48.372Z,2.00
2023-03-13T21:03:15.272Z,1.87
2023-03-13T21:05:42.372Z,1.90
2023-03-13T21:08:09.451Z,2.10
2023-03-13T21:10:39.557Z,2.20
2023-03-13T21:13:06.666Z,2.13
2023-03-13T21:15:33.652Z,2.10
2023-03-13T21:18:00.529Z,2.10
2023-03-13T21:20:27.997Z,2.10
2023-03-13T21:22:55.131Z,2.43
2023-03-13T21:25:21.997Z,2.13
2023-03-13T21:27:48.741Z,2.10
2023-03-13T21:30:18.140Z,2.17
2023-03-13T21:32:45.461Z,2.50
2023-03-13T21:35:12.720Z,2.30
2023-03-13T21:37:39.898Z,2.57
2023-03-13T21:40:08.796Z,2.67
2023-03-13T21:42:36.160Z,2.60
2023-03-13T21:45:04.283Z,2.60
2023-03-13T21:47:36.550Z,2.37
2023-03-13T21:50:05.783Z,2.83
2023-03-13T21:52:34.404Z,2.50
2023-03-13T21:55:03.489Z,2.30
2023-03-13T21:57:29.996Z,2.57
2023-03-13T21:59:56.553Z,2.70
2023-03-13T22:02:23.172Z,2.30
2023-03-13T22:04:49.872Z,2.13
2023-03-13T22:07:16.436Z,2.07
2023-03-13T22:09:42.973Z,1.87
2023-03-13T22:12:09.659Z,2.27
2023-03-13T22:14:36.393Z,2.10
2023-03-13T22:17:03.231Z,2.20
2023-03-13T22:19:29.841Z,2.20
2023-03-13T22:21:56.394Z,2.20
2023-03-13T22:24:23.216Z,2.47
2023-03-13T22:26:49.796Z,2.63
2023-03-13T22:29:16.391Z,3.10
2023-03-13T22:31:42.937Z,3.37
2023-03-13T22:34:09.489Z,2.50
2023-03-13T22:36:37.795Z,2.47
2023-03-13T22:39:04.499Z,2.50
2023-03-13T22:41:30.993Z,2.30
2023-03-13T22:43:57.471Z,2.10
2023-03-13T22:46:24.475Z,2.60
2023-03-13T22:48:51.079Z,2.50
2023-03-13T22:51:17.619Z,2.40
2023-03-13T22:53:44.143Z,2.10
2023-03-13T22:56:11.966Z,2.17
2023-03-13T22:58:39.446Z,2.10
2023-03-13T23:01:12.404Z,2.20
2023-03-13T23:03:39.492Z,2.00
2023-03-13T23:06:07.994Z,2.70
2023-03-13T23:08:35.257Z,2.57
2023-03-13T23:11:03.346Z,2.50
2023-03-13T23:13:30.498Z,2.63
2023-03-13T23:15:57.677Z,2.87
2023-03-13T23:18:25.548Z,2.67
2023-03-13T23:20:52.346Z,2.70
2023-03-13T23:23:19.023Z,2.67
2023-03-13T23:25:45.691Z,3.03
2023-03-13T23:28:12.321Z,2.50
2023-03-13T23:30:38.976Z,3.03
2023-03-13T23:33:05.865Z,2.83
2023-03-13T23:35:32.662Z,2.87
2023-03-13T23:37:59.273Z,2.90
2023-03-13T23:40:25.772Z,2.70
2023-03-13T23:42:52.736Z,3.00
2023-03-13T23:45:19.271Z,2.80
2023-03-13T23:47:46.232Z,2.47
2023-03-13T23:50:15.373Z,2.60
2023-03-13T23:52:42.156Z,2.33
2023-03-13T23:55:09.913Z,2.17
2023-03-13T23:57:39.873Z,2.20
